sensor_id;sensor_type;location;lat;lon;timestamp;pressure;altitude;pressure_sealevel;temperature;humidity
33554;BME280;19885;42.208;24.952;2022-10-28T00:00:25;101194.91;;;12.71;65.64
33554;BME280;19885;42.208;24.952;2022-10-28T00:02:51;101202.69;;;12.68;66.88
33554;BME280;19885;42.208;24.952;2022-10-28T00:05:16;101202.56;;;12.62;66.77
33554;BME280;19885;42.208;24.952;2022-10-28T00:07:42;101210.41;;;12.62;66.47
33554;BME280;19885;42.208;24.952;2022-10-28T00:10:08;101151.38;;;12.30;66.93
33554;BME280;19885;42.208;24.952;2022-10-28T00:12:34;101199.81;;;12.56;65.66
33554;BME280;19885;42.208;24.952;2022-10-28T00:15:00;101197.97;;;12.51;66.34
33554;BME280;19885;42.208;24.952;2022-10-28T00:17:26;101141.59;;;12.22;66.31
33554;BME280;19885;42.208;24.952;2022-10-28T00:19:51;101201.50;;;12.53;66.62
33554;BME280;19885;42.208;24.952;2022-10-28T00:22:17;101198.06;;;12.55;66.55
33554;BME280;19885;42.208;24.952;2022-10-28T00:24:42;101202.34;;;12.52;66.09
33554;BME280;19885;42.208;24.952;2022-10-28T00:27:07;101200.59;;;12.51;66.53
33554;BME280;19885;42.208;24.952;2022-10-28T00:29:33;101200.66;;;12.54;66.24
33554;BME280;19885;42.208;24.952;2022-10-28T00:31:58;101195.38;;;12.52;67.13
33554;BME280;19885;42.208;24.952;2022-10-28T00:34:24;101181.19;;;12.40;66.87
33554;BME280;19885;42.208;24.952;2022-10-28T00:36:49;101202.94;;;12.39;67.13
33554;BME280;19885;42.208;24.952;2022-10-28T00:39:18;101200.13;;;12.28;67.80
33554;BME280;19885;42.208;24.952;2022-10-28T00:41:47;101205.25;;;12.25;67.21
33554;BME280;19885;42.208;24.952;2022-10-28T00:47:42;101212.41;;;12.32;66.77
33554;BME280;19885;42.208;24.952;2022-10-28T00:50:45;101201.88;;;12.29;66.31
33554;BME280;19885;42.208;24.952;2022-10-28T00:53:15;101206.22;;;12.29;66.77
33554;BME280;19885;42.208;24.952;2022-10-28T00:55:44;101202.53;;;12.19;67.20
33554;BME280;19885;42.208;24.952;2022-10-28T00:58:11;101180.50;;;12.08;66.52
33554;BME280;19885;42.208;24.952;2022-10-28T01:00:37;101203.31;;;12.15;66.89
33554;BME280;19885;42.208;24.952;2022-10-28T01:03:03;101195.44;;;12.13;67.41
33554;BME280;19885;42.208;24.952;2022-10-28T01:05:32;101197.94;;;12.09;66.25
33554;BME280;19885;42.208;24.952;2022-10-28T01:08:00;101186.50;;;12.04;66.75
33554;BME280;19885;42.208;24.952;2022-10-28T01:27:42;101198.72;;;11.68;69.13
33554;BME280;19885;42.208;24.952;2022-10-28T01:30:26;101190.63;;;11.57;68.54
33554;BME280;19885;42.208;24.952;2022-10-28T01:43:48;101201.97;;;11.59;69.27
33554;BME280;19885;42.208;24.952;2022-10-28T01:46:39;101204.66;;;11.62;69.27
33554;BME280;19885;42.208;24.952;2022-10-28T01:49:31;101196.63;;;11.55;69.20
33554;BME280;19885;42.208;24.952;2022-10-28T01:52:04;101212.16;;;11.48;69.65
33554;BME280;19885;42.208;24.952;2022-10-28T01:54:32;101210.34;;;11.46;68.72
33554;BME280;19885;42.208;24.952;2022-10-28T01:57:00;101205.03;;;11.41;69.81
33554;BME280;19885;42.208;24.952;2022-10-28T01:59:29;101194.34;;;11.32;69.64
33554;BME280;19885;42.208;24.952;2022-10-28T02:01:55;101189.81;;;11.25;69.96
33554;BME280;19885;42.208;24.952;2022-10-28T02:04:21;101205.94;;;11.43;69.93
33554;BME280;19885;42.208;24.952;2022-10-28T02:06:49;101214.00;;;11.53;69.15
33554;BME280;19885;42.208;24.952;2022-10-28T02:12:26;101215.00;;;11.58;68.67
33554;BME280;19885;42.208;24.952;2022-10-28T02:17:49;101172.31;;;11.21;69.33
33554;BME280;19885;42.208;24.952;2022-10-28T02:22:52;101205.78;;;11.37;69.03
33554;BME280;19885;42.208;24.952;2022-10-28T02:25:25;101208.31;;;11.34;69.32
33554;BME280;19885;42.208;24.952;2022-10-28T02:28:00;101207.25;;;11.26;69.11
33554;BME280;19885;42.208;24.952;2022-10-28T02:30:58;101212.38;;;11.22;69.79
33554;BME280;19885;42.208;24.952;2022-10-28T02:33:30;101212.31;;;11.20;70.30
33554;BME280;19885;42.208;24.952;2022-10-28T02:36:00;101218.53;;;11.25;69.74
33554;BME280;19885;42.208;24.952;2022-10-28T02:38:33;101221.28;;;11.31;69.91
33554;BME280;19885;42.208;24.952;2022-10-28T02:41:05;101220.44;;;11.32;70.05
33554;BME280;19885;42.208;24.952;2022-10-28T02:43:35;101225.66;;;11.32;69.57
33554;BME280;19885;42.208;24.952;2022-10-28T02:46:03;101225.59;;;11.29;70.30
33554;BME280;19885;42.208;24.952;2022-10-28T02:48:37;101214.78;;;11.16;70.13
33554;BME280;19885;42.208;24.952;2022-10-28T02:51:11;101233.16;;;11.20;70.57
33554;BME280;19885;42.208;24.952;2022-10-28T02:54:00;101231.34;;;11.16;70.82
33554;BME280;19885;42.208;24.952;2022-10-28T02:56:30;101234.88;;;11.18;70.33
33554;BME280;19885;42.208;24.952;2022-10-28T02:58:59;101241.78;;;11.16;70.11
33554;BME280;19885;42.208;24.952;2022-10-28T03:01:27;101233.84;;;11.13;70.46
33554;BME280;19885;42.208;24.952;2022-10-28T03:03:53;101228.47;;;11.07;70.58
33554;BME280;19885;42.208;24.952;2022-10-28T03:06:18;101240.84;;;11.14;70.70
33554;BME280;19885;42.208;24.952;2022-10-28T03:08:44;101239.16;;;11.16;70.38
33554;BME280;19885;42.208;24.952;2022-10-28T03:11:09;101243.56;;;11.17;69.79
33554;BME280;19885;42.208;24.952;2022-10-28T03:13:35;101250.53;;;11.18;70.40
33554;BME280;19885;42.208;24.952;2022-10-28T03:16:00;101242.53;;;11.12;70.28
33554;BME280;19885;42.208;24.952;2022-10-28T03:18:26;101241.56;;;11.09;69.80
33554;BME280;19885;42.208;24.952;2022-10-28T03:20:51;101253.66;;;11.05;69.49
33554;BME280;19885;42.208;24.952;2022-10-28T03:23:16;101248.34;;;11.02;69.65
33554;BME280;19885;42.208;24.952;2022-10-28T03:25:42;101244.69;;;10.96;69.56
33554;BME280;19885;42.208;24.952;2022-10-28T03:28:07;101252.50;;;10.96;70.43
33554;BME280;19885;42.208;24.952;2022-10-28T03:30:33;101258.53;;;10.93;69.95
33554;BME280;19885;42.208;24.952;2022-10-28T03:32:58;101249.00;;;10.95;70.60
33554;BME280;19885;42.208;24.952;2022-10-28T03:35:24;101253.19;;;10.89;70.31
33554;BME280;19885;42.208;24.952;2022-10-28T03:37:49;101254.97;;;10.90;70.41
33554;BME280;19885;42.208;24.952;2022-10-28T03:40:15;101259.28;;;10.89;69.62
33554;BME280;19885;42.208;24.952;2022-10-28T03:42:42;101255.50;;;10.78;70.12
33554;BME280;19885;42.208;24.952;2022-10-28T03:45:09;101267.47;;;10.71;69.85
33554;BME280;19885;42.208;24.952;2022-10-28T03:47:38;101263.03;;;10.67;69.39
33554;BME280;19885;42.208;24.952;2022-10-28T03:50:10;101255.88;;;10.60;69.83
33554;BME280;19885;42.208;24.952;2022-10-28T03:52:38;101263.69;;;10.60;70.13
33554;BME280;19885;42.208;24.952;2022-10-28T03:55:07;101266.81;;;10.49;69.79
33554;BME280;19885;42.208;24.952;2022-10-28T03:57:32;101260.19;;;10.32;70.27
33554;BME280;19885;42.208;24.952;2022-10-28T03:59:58;101249.84;;;10.06;71.04
33554;BME280;19885;42.208;24.952;2022-10-28T04:02:24;101267.56;;;10.17;71.33
33554;BME280;19885;42.208;24.952;2022-10-28T04:04:51;101264.06;;;10.16;71.12
33554;BME280;19885;42.208;24.952;2022-10-28T04:07:16;101246.25;;;10.03;71.46
33554;BME280;19885;42.208;24.952;2022-10-28T04:09:43;101258.56;;;10.08;71.65
33554;BME280;19885;42.208;24.952;2022-10-28T04:12:14;101269.41;;;9.94;71.91
33554;BME280;19885;42.208;24.952;2022-10-28T04:14:39;101268.13;;;9.81;70.82
33554;BME280;19885;42.208;24.952;2022-10-28T04:17:05;101260.69;;;9.65;71.25
33554;BME280;19885;42.208;24.952;2022-10-28T04:19:34;101265.88;;;9.65;71.71
33554;BME280;19885;42.208;24.952;2022-10-28T04:21:59;101261.47;;;9.63;72.47
33554;BME280;19885;42.208;24.952;2022-10-28T04:24:26;101265.78;;;9.62;72.50
33554;BME280;19885;42.208;24.952;2022-10-28T04:26:52;101270.78;;;9.56;73.24
33554;BME280;19885;42.208;24.952;2022-10-28T04:29:18;101269.81;;;9.54;72.38
33554;BME280;19885;42.208;24.952;2022-10-28T04:31:44;101267.13;;;9.51;73.61
33554;BME280;19885;42.208;24.952;2022-10-28T04:34:10;101253.91;;;9.45;73.21
33554;BME280;19885;42.208;24.952;2022-10-28T04:36:35;101265.47;;;9.53;74.22
33554;BME280;19885;42.208;24.952;2022-10-28T04:39:00;101258.19;;;9.43;72.81
33554;BME280;19885;42.208;24.952;2022-10-28T04:41:26;101257.03;;;9.35;73.02
33554;BME280;19885;42.208;24.952;2022-10-28T04:43:52;101263.03;;;9.32;72.78
33554;BME280;19885;42.208;24.952;2022-10-28T04:46:20;101205.69;;;9.04;73.60
33554;BME280;19885;42.208;24.952;2022-10-28T04:48:46;101247.56;;;9.37;74.69
33554;BME280;19885;42.208;24.952;2022-10-28T04:51:11;101267.72;;;9.43;74.21
33554;BME280;19885;42.208;24.952;2022-10-28T04:53:37;101260.22;;;9.26;74.42
33554;BME280;19885;42.208;24.952;2022-10-28T04:56:02;101253.81;;;9.17;75.02
33554;BME280;19885;42.208;24.952;2022-10-28T04:58:28;101260.00;;;9.20;75.25
33554;BME280;19885;42.208;24.952;2022-10-28T05:00:53;101255.56;;;9.18;75.00
33554;BME280;19885;42.208;24.952;2022-10-28T05:03:19;101265.28;;;9.22;74.79
33554;BME280;19885;42.208;24.952;2022-10-28T05:05:44;101213.91;;;8.91;74.61
33554;BME280;19885;42.208;24.952;2022-10-28T05:08:10;101259.09;;;9.20;74.98
33554;BME280;19885;42.208;24.952;2022-10-28T05:10:35;101261.66;;;9.18;75.01
33554;BME280;19885;42.208;24.952;2022-10-28T05:13:01;101269.78;;;9.27;74.64
33554;BME280;19885;42.208;24.952;2022-10-28T05:15:26;101257.56;;;9.25;74.64
33554;BME280;19885;42.208;24.952;2022-10-28T05:17:52;101282.44;;;9.42;74.55
33554;BME280;19885;42.208;24.952;2022-10-28T05:20:18;101291.78;;;9.62;74.77
33554;BME280;19885;42.208;24.952;2022-10-28T05:22:49;101293.00;;;9.72;74.94
33554;BME280;19885;42.208;24.952;2022-10-28T05:25:16;101295.03;;;9.82;74.31
33554;BME280;19885;42.208;24.952;2022-10-28T05:27:42;101304.88;;;9.90;74.45
33554;BME280;19885;42.208;24.952;2022-10-28T05:30:09;101289.25;;;9.90;73.93
33554;BME280;19885;42.208;24.952;2022-10-28T05:32:35;101301.59;;;9.96;74.26
33554;BME280;19885;42.208;24.952;2022-10-28T05:35:00;101304.44;;;10.03;74.16
33554;BME280;19885;42.208;24.952;2022-10-28T05:37:26;101320.59;;;10.19;73.85
33554;BME280;19885;42.208;24.952;2022-10-28T05:39:51;101313.06;;;10.28;73.59
33554;BME280;19885;42.208;24.952;2022-10-28T05:42:16;101309.16;;;10.42;73.08
33554;BME280;19885;42.208;24.952;2022-10-28T05:44:42;101322.50;;;10.52;72.19
33554;BME280;19885;42.208;24.952;2022-10-28T05:47:07;101321.84;;;10.59;72.17
33554;BME280;19885;42.208;24.952;2022-10-28T05:49:33;101305.44;;;10.62;72.23
33554;BME280;19885;42.208;24.952;2022-10-28T05:51:58;101321.72;;;10.83;71.68
33554;BME280;19885;42.208;24.952;2022-10-28T05:54:24;101310.53;;;10.87;70.99
33554;BME280;19885;42.208;24.952;2022-10-28T05:56:49;101317.84;;;11.00;70.50
33554;BME280;19885;42.208;24.952;2022-10-28T05:59:15;101309.13;;;11.00;70.71
33554;BME280;19885;42.208;24.952;2022-10-28T06:01:40;101325.28;;;11.18;70.45
33554;BME280;19885;42.208;24.952;2022-10-28T06:04:05;101320.28;;;11.25;70.48
33554;BME280;19885;42.208;24.952;2022-10-28T06:06:31;101316.00;;;11.27;70.63
33554;BME280;19885;42.208;24.952;2022-10-28T06:08:57;101315.47;;;11.40;70.79
33554;BME280;19885;42.208;24.952;2022-10-28T06:11:22;101314.06;;;11.52;70.66
33554;BME280;19885;42.208;24.952;2022-10-28T06:13:48;101322.88;;;11.57;70.63
33554;BME280;19885;42.208;24.952;2022-10-28T06:16:13;101303.69;;;11.55;71.13
33554;BME280;19885;42.208;24.952;2022-10-28T06:18:39;101317.03;;;11.65;71.58
33554;BME280;19885;42.208;24.952;2022-10-28T06:21:04;101317.06;;;11.67;71.45
33554;BME280;19885;42.208;24.952;2022-10-28T06:23:30;101334.03;;;11.82;71.07
33554;BME280;19885;42.208;24.952;2022-10-28T06:25:57;101322.88;;;11.88;70.68
33554;BME280;19885;42.208;24.952;2022-10-28T06:28:26;101321.44;;;12.02;70.67
33554;BME280;19885;42.208;24.952;2022-10-28T06:30:52;101311.06;;;12.03;70.34
33554;BME280;19885;42.208;24.952;2022-10-28T06:33:17;101276.78;;;11.91;70.31
33554;BME280;19885;42.208;24.952;2022-10-28T06:35:42;101328.25;;;12.31;70.70
33554;BME280;19885;42.208;24.952;2022-10-28T06:38:08;101320.59;;;12.39;69.74
33554;BME280;19885;42.208;24.952;2022-10-28T06:40:34;101321.78;;;12.51;69.87
33554;BME280;19885;42.208;24.952;2022-10-28T06:43:01;101329.22;;;12.73;69.05
33554;BME280;19885;42.208;24.952;2022-10-28T06:45:27;101296.97;;;12.74;69.04
33554;BME280;19885;42.208;24.952;2022-10-28T06:47:57;101315.34;;;13.18;68.26
33554;BME280;19885;42.208;24.952;2022-10-28T06:50:23;101333.34;;;13.94;65.93
33554;BME280;19885;42.208;24.952;2022-10-28T06:52:49;101320.59;;;14.73;62.24
33554;BME280;19885;42.208;24.952;2022-10-28T06:55:14;101318.47;;;15.14;61.72
33554;BME280;19885;42.208;24.952;2022-10-28T06:57:40;101319.00;;;15.58;60.35
33554;BME280;19885;42.208;24.952;2022-10-28T07:00:06;101321.97;;;15.96;58.87
33554;BME280;19885;42.208;24.952;2022-10-28T07:02:31;101323.16;;;16.37;57.06
33554;BME280;19885;42.208;24.952;2022-10-28T07:04:57;101331.19;;;16.57;56.32
33554;BME280;19885;42.208;24.952;2022-10-28T07:07:22;101319.78;;;16.56;56.57
33554;BME280;19885;42.208;24.952;2022-10-28T07:09:48;101322.44;;;16.58;56.93
33554;BME280;19885;42.208;24.952;2022-10-28T07:12:13;101324.25;;;16.72;56.62
33554;BME280;19885;42.208;24.952;2022-10-28T07:14:39;101311.13;;;16.75;56.37
33554;BME280;19885;42.208;24.952;2022-10-28T07:17:04;101315.72;;;17.28;55.35
33554;BME280;19885;42.208;24.952;2022-10-28T07:19:30;101321.13;;;17.73;53.88
33554;BME280;19885;42.208;24.952;2022-10-28T07:21:55;101324.66;;;18.10;52.57
33554;BME280;19885;42.208;24.952;2022-10-28T07:24:21;101314.97;;;18.07;53.60
33554;BME280;19885;42.208;24.952;2022-10-28T07:26:47;101300.88;;;18.20;52.14
33554;BME280;19885;42.208;24.952;2022-10-28T07:29:13;101289.41;;;18.29;52.40
33554;BME280;19885;42.208;24.952;2022-10-28T07:31:39;101309.63;;;18.65;51.89
33554;BME280;19885;42.208;24.952;2022-10-28T07:34:04;101277.97;;;18.52;51.15
33554;BME280;19885;42.208;24.952;2022-10-28T07:36:30;101315.69;;;18.92;50.88
33554;BME280;19885;42.208;24.952;2022-10-28T07:38:55;101297.25;;;18.82;50.49
33554;BME280;19885;42.208;24.952;2022-10-28T07:41:22;101307.81;;;18.74;51.24
33554;BME280;19885;42.208;24.952;2022-10-28T07:43:48;101263.81;;;18.75;51.16
33554;BME280;19885;42.208;24.952;2022-10-28T07:46:15;101259.31;;;18.90;51.20
33554;BME280;19885;42.208;24.952;2022-10-28T07:48:41;101310.22;;;19.35;50.51
33554;BME280;19885;42.208;24.952;2022-10-28T07:51:11;101309.38;;;19.28;50.72
33554;BME280;19885;42.208;24.952;2022-10-28T07:53:39;101297.94;;;19.26;51.33
33554;BME280;19885;42.208;24.952;2022-10-28T07:56:07;101298.66;;;19.55;50.81
33554;BME280;19885;42.208;24.952;2022-10-28T07:58:34;101299.16;;;20.03;49.00
33554;BME280;19885;42.208;24.952;2022-10-28T08:01:06;101257.38;;;20.36;48.91
33554;BME280;19885;42.208;24.952;2022-10-28T08:03:33;101292.19;;;20.81;47.46
33554;BME280;19885;42.208;24.952;2022-10-28T08:06:07;101296.00;;;21.30;47.27
33554;BME280;19885;42.208;24.952;2022-10-28T08:08:33;101293.19;;;21.38;46.81
33554;BME280;19885;42.208;24.952;2022-10-28T08:13:39;101294.56;;;21.66;45.57
33554;BME280;19885;42.208;24.952;2022-10-28T08:16:05;101286.28;;;21.85;45.27
33554;BME280;19885;42.208;24.952;2022-10-28T08:18:36;101258.19;;;21.72;46.28
33554;BME280;19885;42.208;24.952;2022-10-28T08:21:04;101289.00;;;21.81;46.71
33554;BME280;19885;42.208;24.952;2022-10-28T08:23:30;101279.81;;;22.03;46.68
33554;BME280;19885;42.208;24.952;2022-10-28T08:25:56;101234.56;;;22.09;47.30
33554;BME280;19885;42.208;24.952;2022-10-28T08:28:21;101262.63;;;22.69;45.12
33554;BME280;19885;42.208;24.952;2022-10-28T08:30:49;101268.56;;;22.82;44.68
33554;BME280;19885;42.208;24.952;2022-10-28T08:33:18;101283.78;;;22.76;45.26
33554;BME280;19885;42.208;24.952;2022-10-28T08:35:49;101277.91;;;22.60;45.06
33554;BME280;19885;42.208;24.952;2022-10-28T08:38:16;101280.53;;;22.61;45.41
33554;BME280;19885;42.208;24.952;2022-10-28T08:46:29;101250.41;;;22.59;46.23
33554;BME280;19885;42.208;24.952;2022-10-28T08:49:02;101269.50;;;22.80;47.54
33554;BME280;19885;42.208;24.952;2022-10-28T08:54:17;101260.44;;;23.29;44.78
33554;BME280;19885;42.208;24.952;2022-10-28T08:56:46;101270.06;;;22.95;46.18
33554;BME280;19885;42.208;24.952;2022-10-28T08:59:34;101266.75;;;23.24;45.33
33554;BME280;19885;42.208;24.952;2022-10-28T09:02:19;101254.03;;;23.75;43.74
33554;BME280;19885;42.208;24.952;2022-10-28T09:04:48;101256.84;;;24.05;42.12
33554;BME280;19885;42.208;24.952;2022-10-28T09:07:18;101222.78;;;23.81;42.24
33554;BME280;19885;42.208;24.952;2022-10-28T09:09:45;101238.72;;;23.84;42.73
33554;BME280;19885;42.208;24.952;2022-10-28T09:17:56;101247.38;;;24.26;42.74
33554;BME280;19885;42.208;24.952;2022-10-28T09:23:22;101226.28;;;24.51;40.70
33554;BME280;19885;42.208;24.952;2022-10-28T09:31:38;101221.19;;;24.42;40.41
33554;BME280;19885;42.208;24.952;2022-10-28T09:34:27;101225.34;;;24.52;40.68
33554;BME280;19885;42.208;24.952;2022-10-28T09:37:09;101223.34;;;24.60;39.60
33554;BME280;19885;42.208;24.952;2022-10-28T09:40:04;101217.22;;;24.26;41.36
33554;BME280;19885;42.208;24.952;2022-10-28T09:42:37;101197.16;;;24.43;39.50
33554;BME280;19885;42.208;24.952;2022-10-28T09:45:20;101209.06;;;24.61;38.89
33554;BME280;19885;42.208;24.952;2022-10-28T09:47:56;101204.72;;;24.88;39.60
33554;BME280;19885;42.208;24.952;2022-10-28T09:50:27;101196.56;;;24.94;39.07
33554;BME280;19885;42.208;24.952;2022-10-28T09:55:22;101207.00;;;24.40;38.75
33554;BME280;19885;42.208;24.952;2022-10-28T09:57:48;101194.19;;;24.85;38.99
33554;BME280;19885;42.208;24.952;2022-10-28T10:00:14;101175.53;;;25.11;37.47
33554;BME280;19885;42.208;24.952;2022-10-28T10:02:41;101184.97;;;25.22;37.05
33554;BME280;19885;42.208;24.952;2022-10-28T10:05:15;101178.75;;;25.22;37.06
33554;BME280;19885;42.208;24.952;2022-10-28T10:07:51;101182.88;;;25.04;38.77
33554;BME280;19885;42.208;24.952;2022-10-28T10:10:24;101178.25;;;25.37;37.29
33554;BME280;19885;42.208;24.952;2022-10-28T10:12:52;101167.34;;;25.44;37.25
33554;BME280;19885;42.208;24.952;2022-10-28T10:15:35;101177.38;;;25.36;35.75
33554;BME280;19885;42.208;24.952;2022-10-28T10:18:05;101170.34;;;25.62;36.19
33554;BME280;19885;42.208;24.952;2022-10-28T10:20:51;101162.66;;;25.51;37.58
33554;BME280;19885;42.208;24.952;2022-10-28T10:23:28;101150.56;;;25.13;36.53
33554;BME280;19885;42.208;24.952;2022-10-28T10:25:58;101160.53;;;25.34;36.42
33554;BME280;19885;42.208;24.952;2022-10-28T10:28:27;101145.19;;;24.87;35.18
33554;BME280;19885;42.208;24.952;2022-10-28T10:30:57;101150.25;;;24.96;35.05
33554;BME280;19885;42.208;24.952;2022-10-28T10:33:27;101148.97;;;25.08;35.67
33554;BME280;19885;42.208;24.952;2022-10-28T10:36:01;101145.34;;;25.63;33.91
33554;BME280;19885;42.208;24.952;2022-10-28T10:38:28;101149.47;;;25.73;34.45
33554;BME280;19885;42.208;24.952;2022-10-28T10:40:54;101146.03;;;25.15;34.86
33554;BME280;19885;42.208;24.952;2022-10-28T10:43:24;101142.31;;;24.64;36.80
33554;BME280;19885;42.208;24.952;2022-10-28T10:46:14;101147.28;;;25.05;34.53
33554;BME280;19885;42.208;24.952;2022-10-28T10:48:41;101137.34;;;25.63;36.27
33554;BME280;19885;42.208;24.952;2022-10-28T10:51:17;101130.69;;;25.99;34.18
33554;BME280;19885;42.208;24.952;2022-10-28T10:53:48;101125.88;;;26.10;33.46
33554;BME280;19885;42.208;24.952;2022-10-28T10:56:31;101120.56;;;25.84;32.63
33554;BME280;19885;42.208;24.952;2022-10-28T10:58:59;101114.97;;;25.91;33.48
33554;BME280;19885;42.208;24.952;2022-10-28T11:01:32;101118.09;;;26.02;32.93
33554;BME280;19885;42.208;24.952;2022-10-28T11:04:01;101114.50;;;25.54;33.00
33554;BME280;19885;42.208;24.952;2022-10-28T11:06:30;101121.31;;;25.36;33.38
33554;BME280;19885;42.208;24.952;2022-10-28T11:09:05;101110.69;;;25.35;33.26
33554;BME280;19885;42.208;24.952;2022-10-28T11:11:36;101107.56;;;24.96;34.15
33554;BME280;19885;42.208;24.952;2022-10-28T11:14:26;101128.38;;;25.11;34.73
33554;BME280;19885;42.208;24.952;2022-10-28T11:16:55;101120.09;;;25.46;34.45
33554;BME280;19885;42.208;24.952;2022-10-28T11:19:35;101068.66;;;25.40;32.95
33554;BME280;19885;42.208;24.952;2022-10-28T11:22:07;101111.34;;;25.15;33.35
33554;BME280;19885;42.208;24.952;2022-10-28T11:30:29;101105.41;;;25.60;33.73
33554;BME280;19885;42.208;24.952;2022-10-28T11:35:52;101094.81;;;25.04;33.02
33554;BME280;19885;42.208;24.952;2022-10-28T11:45:53;101085.09;;;24.74;33.84
33554;BME280;19885;42.208;24.952;2022-10-28T12:00:20;101069.66;;;24.56;33.82
33554;BME280;19885;42.208;24.952;2022-10-28T12:03:03;101025.28;;;24.55;33.94
33554;BME280;19885;42.208;24.952;2022-10-28T12:05:43;101060.84;;;24.54;33.70
33554;BME280;19885;42.208;24.952;2022-10-28T12:11:17;101059.06;;;23.94;33.53
33554;BME280;19885;42.208;24.952;2022-10-28T12:19:57;101040.97;;;24.07;34.95
33554;BME280;19885;42.208;24.952;2022-10-28T12:22:30;101035.22;;;23.91;33.99
33554;BME280;19885;42.208;24.952;2022-10-28T12:25:03;101041.41;;;23.92;33.69
33554;BME280;19885;42.208;24.952;2022-10-28T12:27:36;101037.59;;;23.70;35.01
33554;BME280;19885;42.208;24.952;2022-10-28T12:30:31;101030.72;;;23.93;34.49
33554;BME280;19885;42.208;24.952;2022-10-28T12:33:06;101033.69;;;24.14;33.94
33554;BME280;19885;42.208;24.952;2022-10-28T12:35:38;101030.38;;;24.05;34.06
33554;BME280;19885;42.208;24.952;2022-10-28T12:38:25;101027.91;;;23.98;34.73
33554;BME280;19885;42.208;24.952;2022-10-28T12:41:06;101022.47;;;24.32;34.34
33554;BME280;19885;42.208;24.952;2022-10-28T12:43:39;101022.25;;;24.38;33.07
33554;BME280;19885;42.208;24.952;2022-10-28T12:46:20;101022.94;;;24.44;33.02
33554;BME280;19885;42.208;24.952;2022-10-28T12:48:59;100976.72;;;24.18;33.24
33554;BME280;19885;42.208;24.952;2022-10-28T12:51:39;100988.91;;;24.25;33.95
33554;BME280;19885;42.208;24.952;2022-10-28T12:54:16;101012.75;;;24.29;33.00
33554;BME280;19885;42.208;24.952;2022-10-28T12:56:53;101021.09;;;24.19;33.82
33554;BME280;19885;42.208;24.952;2022-10-28T12:59:40;101016.06;;;23.47;34.44
33554;BME280;19885;42.208;24.952;2022-10-28T13:02:18;101002.41;;;23.59;35.74
33554;BME280;19885;42.208;24.952;2022-10-28T13:04:46;100992.97;;;23.47;35.51
33554;BME280;19885;42.208;24.952;2022-10-28T13:10:14;101005.22;;;23.54;35.67
33554;BME280;19885;42.208;24.952;2022-10-28T13:15:46;101000.28;;;23.71;35.20
33554;BME280;19885;42.208;24.952;2022-10-28T13:26:29;101006.09;;;23.21;35.59
33554;BME280;19885;42.208;24.952;2022-10-28T13:29:01;100989.75;;;23.02;36.18
33554;BME280;19885;42.208;24.952;2022-10-28T13:31:40;100998.63;;;23.01;35.96
33554;BME280;19885;42.208;24.952;2022-10-28T13:34:07;101001.84;;;22.80;36.60
33554;BME280;19885;42.208;24.952;2022-10-28T13:36:39;101002.63;;;22.84;36.49
33554;BME280;19885;42.208;24.952;2022-10-28T13:44:51;100989.47;;;22.79;36.59
33554;BME280;19885;42.208;24.952;2022-10-28T13:47:29;101000.44;;;22.65;36.34
33554;BME280;19885;42.208;24.952;2022-10-28T13:50:07;100994.41;;;22.93;36.35
33554;BME280;19885;42.208;24.952;2022-10-28T13:52:44;100993.19;;;23.06;36.99
33554;BME280;19885;42.208;24.952;2022-10-28T13:57:41;101004.19;;;22.92;35.55
33554;BME280;19885;42.208;24.952;2022-10-28T14:05:16;100980.53;;;22.82;35.54
33554;BME280;19885;42.208;24.952;2022-10-28T14:08:03;100990.22;;;22.47;36.25
33554;BME280;19885;42.208;24.952;2022-10-28T14:10:30;100990.78;;;22.23;37.85
33554;BME280;19885;42.208;24.952;2022-10-28T14:12:58;100993.50;;;22.20;37.55
33554;BME280;19885;42.208;24.952;2022-10-28T14:17:56;100977.78;;;22.11;37.85
33554;BME280;19885;42.208;24.952;2022-10-28T14:22:49;100990.84;;;22.20;38.12
33554;BME280;19885;42.208;24.952;2022-10-28T14:41:32;100945.72;;;21.79;38.04
33554;BME280;19885;42.208;24.952;2022-10-28T14:49:30;100987.28;;;22.58;37.10
33554;BME280;19885;42.208;24.952;2022-10-28T14:52:01;100987.28;;;22.59;37.25
33554;BME280;19885;42.208;24.952;2022-10-28T14:57:08;100985.06;;;22.41;39.29
33554;BME280;19885;42.208;24.952;2022-10-28T14:59:41;100989.75;;;22.29;39.74
33554;BME280;19885;42.208;24.952;2022-10-28T15:02:14;100986.56;;;22.15;41.26
33554;BME280;19885;42.208;24.952;2022-10-28T15:04:43;100976.56;;;21.87;42.02
33554;BME280;19885;42.208;24.952;2022-10-28T15:07:12;100986.47;;;21.76;43.62
33554;BME280;19885;42.208;24.952;2022-10-28T15:09:39;100979.75;;;21.59;43.83
33554;BME280;19885;42.208;24.952;2022-10-28T15:12:07;100980.09;;;21.42;44.70
33554;BME280;19885;42.208;24.952;2022-10-28T15:17:26;100980.81;;;21.04;45.20
33554;BME280;19885;42.208;24.952;2022-10-28T15:19:54;100990.13;;;20.76;46.27
33554;BME280;19885;42.208;24.952;2022-10-28T15:24:53;100994.28;;;20.36;48.54
33554;BME280;19885;42.208;24.952;2022-10-28T15:27:20;100986.59;;;20.19;48.18
33554;BME280;19885;42.208;24.952;2022-10-28T15:29:47;100986.03;;;19.94;48.92
33554;BME280;19885;42.208;24.952;2022-10-28T15:32:23;100978.34;;;19.75;50.89
33554;BME280;19885;42.208;24.952;2022-10-28T15:34:48;100981.28;;;19.52;51.16
33554;BME280;19885;42.208;24.952;2022-10-28T15:37:21;100977.91;;;19.38;51.33
33554;BME280;19885;42.208;24.952;2022-10-28T15:39:50;100986.81;;;19.30;50.94